Time;durP1;ratioP1;P1;durP2;ratioP2;P2;SDS_P1;SDS_P2;PMS_P1;PMS_P2;Temp;Humidity;BMP_temperature;BMP_pressure;BME280_temperature;BME280_humidity;BME280_pressure;Samples;Min_cycle;Max_cycle;Signal;HPM_P1;HPM_P2
2023/05/25 00:02:08;;;;;;;;;;;;;;;;;;5071382;28;19999;-60
2023/05/25 00:04:34;;;;;;;;;;;;;;;;;;5074985;28;19952;-60
2023/05/25 00:07:00;;;;;;;;;;;;;;;;;;5079357;28;20028;-60
2023/05/25 00:09:25;;;;;;;;;;;;;;;;;;5072623;28;19912;-60
2023/05/25 00:11:51;;;;;;;;;;;;;;;;;;5059479;28;19912;-60
2023/05/25 00:14:17;;;;;;;;;;;;;;;;;;5057210;28;20344;-60
2023/05/25 00:16:44;;;;;;;;;;;;;;;;;;5059043;28;20506;-60
2023/05/25 00:19:10;;;;;;;;;;;;;;;;;;5040379;28;20003;-60
2023/05/25 00:21:39;;;;;;;;;;;;;;;;;;5069579;28;20039;-60
2023/05/25 00:24:05;;;;;;;;;;;;;;;;;;5067996;28;19962;-61
2023/05/25 00:26:30;;;;;;;;;;;;;;;;;;5066319;28;19956;-60
2023/05/25 00:28:59;;;;;;;;;;;;;;;;;;5068112;28;19913;-60
2023/05/25 00:31:25;;;;;;;;;;;;;;;;;;5072115;28;20376;-60
2023/05/25 00:33:50;;;;;;;;;;;;;;;;;;5071174;28;19919;-60
2023/05/25 00:36:16;;;;;;;;;;;;;;;;;;5061539;28;19917;-61
2023/05/25 00:38:42;;;;;;;;;;;;;;;;;;5066984;28;20449;-60
2023/05/25 00:41:08;;;;;;;;;;;;;;;;;;5061547;28;19929;-60
2023/05/25 00:43:34;;;;;;;;;;;;;;;;;;5053371;28;20287;-60
2023/05/25 00:46:00;;;;;;;;;;;;;;;;;;5058918;28;19963;-60
2023/05/25 00:48:26;;;;;;;;;;;;;;;;;;5062577;28;20007;-60
2023/05/25 00:50:52;;;;;;;;;;;;;;;;;;5078191;28;19917;-61
2023/05/25 00:53:18;;;;;;;;;;;;;;;;;;5074435;28;19921;-60
2023/05/25 00:55:44;;;;;;;;;;;;;;;;;;5065989;28;20299;-60
2023/05/25 00:58:10;;;;;;;;;;;;;;;;;;5062201;28;20011;-60
2023/05/25 01:00:36;;;;;;;;;;;;;;;;;;5054496;28;20003;-61
2023/05/25 01:03:01;;;;;;;;;;;;;;;;;;5055019;28;20388;-60
2023/05/25 01:05:28;;;;;;;;;;;;;;;;;;5068624;28;19920;-60
2023/05/25 01:07:54;;;;;;;;;;;;;;;;;;5060699;28;20632;-60
2023/05/25 01:10:20;;;;;;;;;;;;;;;;;;5070571;28;19920;-60
2023/05/25 01:12:45;;;;;;;;;;;;;;;;;;5070351;28;20032;-60
2023/05/25 01:15:11;;;;;;;;;;;;;;;;;;5084686;28;19921;-60
2023/05/25 01:17:37;;;;;;;;;;;;;;;;;;5056530;28;20000;-60
2023/05/25 01:20:05;;;;;;;;;;;;;;;;;;5064120;28;20376;-60
2023/05/25 01:22:31;;;;;;;;;;;;;;;;;;5070838;28;19919;-60
2023/05/25 01:25:01;;;;;;;;;;;;;;;;;;5070742;28;20443;-60
2023/05/25 01:27:27;;;;;;;;;;;;;;;;;;5070016;28;19917;-60
2023/05/25 01:29:52;;;;;;;;;;;;;;;;;;5056475;28;19909;-60
2023/05/25 01:32:18;;;;;;;;;;;;;;;;;;5060002;28;19970;-60
2023/05/25 01:34:44;;;;;;;;;;;;;;;;;;5056521;28;20050;-60
2023/05/25 01:37:12;;;;;;;;;;;;;;;;;;5061587;28;20008;-60
2023/05/25 01:39:38;;;;;;;;;;;;;;;;;;5068182;28;19912;-60
2023/05/25 01:42:04;;;;;;;;;;;;;;;;;;5075461;28;19955;-60
2023/05/25 01:44:29;;;;;;;;;;;;;;;;;;5061201;28;20015;-60
2023/05/25 01:46:55;;;;;;;;;;;;;;;;;;5056087;28;19924;-60
2023/05/25 01:49:21;;;;;;;;;;;;;;;;;;5058872;28;20396;-60
2023/05/25 01:51:47;;;;;;;;;;;;;;;;;;5059445;28;19920;-60
2023/05/25 01:54:13;;;;;;;;;;;;;;;;;;5058835;28;19913;-60
2023/05/25 01:56:41;;;;;;;;;;;;;;;;;;5058723;28;19920;-60
2023/05/25 01:59:07;;;;;;;;;;;;;;;;;;5062453;28;19940;-61
2023/05/25 02:01:33;;;;;;;;;;;;;;;;;;5075037;28;19913;-60
2023/05/25 02:03:59;;;;;;;;;;;;;;;;;;5068834;28;19955;-61
2023/05/25 02:06:25;;;;;;;;;;;;;;;;;;5060103;28;19967;-60
2023/05/25 02:08:51;;;;;;;;;;;;;;;;;;5066932;28;20011;-60
2023/05/25 02:11:17;;;;;;;;;;;;;;;;;;5073411;28;19959;-60
2023/05/25 02:13:42;;;;;;;;;;;;;;;;;;5070156;28;19916;-60
2023/05/25 02:16:08;;;;;;;;;;;;;;;;;;5063628;28;19967;-60
2023/05/25 02:18:34;;;;;;;;;;;;;;;;;;5069074;28;19920;-60
2023/05/25 02:21:00;;;;;;;;;;;;;;;;;;5065682;28;19964;-60
2023/05/25 02:23:26;;;;;;;;;;;;;;;;;;5059320;28;19920;-60
2023/05/25 02:25:52;;;;;;;;;;;;;;;;;;5068038;28;20006;-60
2023/05/25 02:28:18;;;;;;;;;;;;;;;;;;5065107;28;19917;-60
2023/05/25 02:30:44;;;;;;;;;;;;;;;;;;5065264;28;19912;-60
2023/05/25 02:33:10;;;;;;;;;;;;;;;;;;5081267;28;20007;-60
2023/05/25 02:35:37;;;;;;;;;;;;;;;;;;5062059;28;20380;-60
2023/05/25 02:38:03;;;;;;;;;;;;;;;;;;5063097;28;19913;-60
2023/05/25 02:40:28;;;;;;;;;;;;;;;;;;5062695;28;19923;-60
2023/05/25 02:42:54;;;;;;;;;;;;;;;;;;5056269;28;19913;-60
2023/05/25 02:45:20;;;;;;;;;;;;;;;;;;5057533;28;19917;-60
2023/05/25 02:47:46;;;;;;;;;;;;;;;;;;5057884;28;20007;-60
2023/05/25 02:50:12;;;;;;;;;;;;;;;;;;5057796;28;20365;-60
2023/05/25 02:52:38;;;;;;;;;;;;;;;;;;5073657;28;19919;-60
2023/05/25 02:55:04;;;;;;;;;;;;;;;;;;5064726;28;19924;-61
2023/05/25 02:57:30;;;;;;;;;;;;;;;;;;5061957;28;19924;-60
2023/05/25 02:59:56;;;;;;;;;;;;;;;;;;5071292;28;20368;-60
2023/05/25 03:02:24;;;;;;;;;;;;;;;;;;5071772;28;19959;-60
2023/05/25 03:04:52;;;;;;;;;;;;;;;;;;5058076;28;19997;-60
2023/05/25 03:07:18;;;;;;;;;;;;;;;;;;5066963;28;20360;-60
2023/05/25 03:09:44;;;;;;;;;;;;;;;;;;5071268;28;19936;-62
2023/05/25 03:12:10;;;;;;;;;;;;;;;;;;5068369;28;19971;-60
2023/05/25 03:14:36;;;;;;;;;;;;;;;;;;5060692;28;20365;-60
2023/05/25 03:17:02;;;;;;;;;;;;;;;;;;5062522;28;19917;-61
2023/05/25 03:19:27;;;;;;;;;;;;;;;;;;5067832;28;19913;-60
2023/05/25 03:21:53;;;;;;;;;;;;;;;;;;5071819;28;19962;-61
2023/05/25 03:24:19;;;;;;;;;;;;;;;;;;5083452;28;19924;-60
2023/05/25 03:26:45;;;;;;;;;;;;;;;;;;5079476;28;19916;-60
2023/05/25 03:29:11;;;;;;;;;;;;;;;;;;5068974;28;19971;-60
2023/05/25 03:31:37;;;;;;;;;;;;;;;;;;5067063;28;20420;-60
2023/05/25 03:34:03;;;;;;;;;;;;;;;;;;5058472;28;19909;-60
2023/05/25 03:36:32;;;;;;;;;;;;;;;;;;5064950;28;19912;-60
2023/05/25 03:38:58;;;;;;;;;;;;;;;;;;5063327;28;19924;-60
2023/05/25 03:41:25;;;;;;;;;;;;;;;;;;5068671;28;19916;-61
2023/05/25 03:43:51;;;;;;;;;;;;;;;;;;5076294;28;20387;-60
2023/05/25 03:46:17;;;;;;;;;;;;;;;;;;5079643;28;19948;-60
2023/05/25 03:48:43;;;;;;;;;;;;;;;;;;5057556;28;19966;-61
2023/05/25 03:51:09;;;;;;;;;;;;;;;;;;5059681;28;20277;-60
2023/05/25 03:53:35;;;;;;;;;;;;;;;;;;5057892;28;19956;-61
2023/05/25 03:56:01;;;;;;;;;;;;;;;;;;5066457;28;19916;-60
2023/05/25 03:58:27;;;;;;;;;;;;;;;;;;5058683;28;19936;-61
2023/05/25 04:00:53;;;;;;;;;;;;;;;;;;5057152;28;19917;-60
2023/05/25 04:03:19;;;;;;;;;;;;;;;;;;5061017;28;19912;-60
2023/05/25 04:05:45;;;;;;;;;;;;;;;;;;5057604;28;19975;-61
2023/05/25 04:08:11;;;;;;;;;;;;;;;;;;5056220;28;19913;-61
2023/05/25 04:10:37;;;;;;;;;;;;;;;;;;5062217;28;19954;-60
2023/05/25 04:13:03;;;;;;;;;;;;;;;;;;5061328;28;19966;-60
2023/05/25 04:15:29;;;;;;;;;;;;;;;;;;5058910;28;19924;-62
2023/05/25 04:17:58;;;;;;;;;;;;;;;;;;5055911;28;20020;-63
2023/05/25 04:20:24;;;;;;;;;;;;;;;;;;5067329;28;19920;-63
2023/05/25 04:22:50;;;;;;;;;;;;;;;;;;5070313;28;19927;-63
2023/05/25 04:25:16;;;;;;;;;;;;;;;;;;5069740;28;20341;-63
2023/05/25 04:27:41;;;;;;;;;;;;;;;;;;5058447;28;19927;-63
2023/05/25 04:30:09;;;;;;;;;;;;;;;;;;5069780;28;19913;-63
2023/05/25 04:32:36;;;;;;;;;;;;;;;;;;5065698;28;22191;-64
2023/05/25 04:35:02;;;;;;;;;;;;;;;;;;5073980;28;19912;-64
2023/05/25 04:37:29;;;;;;;;;;;;;;;;;;5065958;28;20499;-63
2023/05/25 04:39:56;;;;;;;;;;;;;;;;;;5060516;28;19920;-64
2023/05/25 04:42:22;;;;;;;;;;;;;;;;;;5071434;28;19921;-64
2023/05/25 04:44:48;;;;;;;;;;;;;;;;;;5065154;28;20351;-64
2023/05/25 04:47:15;;;;;;;;;;;;;;;;;;5063259;28;20008;-64
2023/05/25 04:49:41;;;;;;;;;;;;;;;;;;5058276;28;19917;-63
2023/05/25 04:52:07;;;;;;;;;;;;;;;;;;5057164;28;19912;-63
2023/05/25 04:54:33;;;;;;;;;;;;;;;;;;5071283;28;19920;-63
2023/05/25 04:57:00;;;;;;;;;;;;;;;;;;5071580;28;19962;-63
2023/05/25 04:59:26;;;;;;;;;;;;;;;;;;5067981;28;19912;-63
2023/05/25 05:01:52;;;;;;;;;;;;;;;;;;5066896;28;19990;-64
2023/05/25 05:04:18;;;;;;;;;;;;;;;;;;5064707;28;20313;-63
2023/05/25 05:06:44;;;;;;;;;;;;;;;;;;5054978;28;19921;-63
2023/05/25 05:09:10;;;;;;;;;;;;;;;;;;5069319;28;19995;-63
2023/05/25 05:11:36;;;;;;;;;;;;;;;;;;5057520;28;20625;-63
2023/05/25 05:14:02;;;;;;;;;;;;;;;;;;5066098;28;19917;-63
2023/05/25 05:16:32;;;;;;;;;;;;;;;;;;5070725;28;19968;-63
2023/05/25 05:18:58;;;;;;;;;;;;;;;;;;5060291;28;19917;-63
2023/05/25 05:21:24;;;;;;;;;;;;;;;;;;5058782;28;20005;-63
2023/05/25 05:23:50;;;;;;;;;;;;;;;;;;5068749;28;19985;-63
2023/05/25 05:26:16;;;;;;;;;;;;;;;;;;5071652;28;19959;-64
2023/05/25 05:28:42;;;;;;;;;;;;;;;;;;5056126;28;19997;-64
2023/05/25 05:31:08;;;;;;;;;;;;;;;;;;5056528;28;19916;-62
2023/05/25 05:33:34;;;;;;;;;;;;;;;;;;5059222;28;19916;-63
2023/05/25 05:36:01;;;;;;;;;;;;;;;;;;5058595;28;19924;-63
2023/05/25 05:38:27;;;;;;;;;;;;;;;;;;5065961;28;19912;-63
2023/05/25 05:40:53;;;;;;;;;;;;;;;;;;5058759;28;19960;-63
2023/05/25 05:43:19;;;;;;;;;;;;;;;;;;5062715;28;19913;-64
2023/05/25 05:45:45;;;;;;;;;;;;;;;;;;5056700;28;19960;-63
2023/05/25 05:48:11;;;;;;;;;;;;;;;;;;5063302;28;19959;-64
2023/05/25 05:50:37;;;;;;;;;;;;;;;;;;5061268;28;19919;-64
2023/05/25 05:53:03;;;;;;;;;;;;;;;;;;5055611;28;19912;-63
2023/05/25 05:55:28;;;;;;;;;;;;;;;;;;5068901;28;20276;-64
2023/05/25 05:57:54;;;;;;;;;;;;;;;;;;5066446;28;20391;-64
2023/05/25 06:00:20;;;;;;;;;;;;;;;;;;5069568;28;20342;-63
2023/05/25 06:02:46;;;;;;;;;;;;;;;;;;5065025;28;19913;-64
2023/05/25 06:05:12;;;;;;;;;;;;;;;;;;5061493;28;20387;-64
2023/05/25 06:07:38;;;;;;;;;;;;;;;;;;5070357;28;23919;-64
2023/05/25 06:10:04;;;;;;;;;;;;;;;;;;5071866;28;19927;-63
2023/05/25 06:12:30;;;;;;;;;;;;;;;;;;5074293;28;19917;-63
2023/05/25 06:14:56;;;;;;;;;;;;;;;;;;5073182;28;20436;-63
2023/05/25 06:17:22;;;;;;;;;;;;;;;;;;5067242;28;19920;-64
2023/05/25 06:19:48;;;;;;;;;;;;;;;;;;5063100;28;20335;-64
2023/05/25 06:22:14;;;;;;;;;;;;;;;;;;5073307;28;19999;-63
2023/05/25 06:24:40;;;;;;;;;;;;;;;;;;5066712;28;19934;-64
2023/05/25 06:27:06;;;;;;;;;;;;;;;;;;5075102;28;20011;-63
2023/05/25 06:29:32;;;;;;;;;;;;;;;;;;5074668;28;19965;-63
2023/05/25 06:31:58;;;;;;;;;;;;;;;;;;5074734;28;20357;-63
2023/05/25 06:34:24;;;;;;;;;;;;;;;;;;5074453;28;19944;-63
2023/05/25 06:36:50;;;;;;;;;;;;;;;;;;5074655;28;19912;-63
2023/05/25 06:39:16;;;;;;;;;;;;;;;;;;5064860;28;20005;-64
2023/05/25 06:41:42;;;;;;;;;;;;;;;;;;5058706;28;20119;-64
2023/05/25 06:44:08;;;;;;;;;;;;;;;;;;5073513;28;19973;-63
2023/05/25 06:46:35;;;;;;;;;;;;;;;;;;5069901;28;19959;-64
2023/05/25 06:49:01;;;;;;;;;;;;;;;;;;5067243;28;19917;-64
2023/05/25 06:51:27;;;;;;;;;;;;;;;;;;5073949;28;19920;-63
2023/05/25 06:53:52;;;;;;;;;;;;;;;;;;5063882;28;20368;-64
2023/05/25 06:56:18;;;;;;;;;;;;;;;;;;5054443;28;20012;-63
2023/05/25 06:58:45;;;;;;;;;;;;;;;;;;5055364;28;19967;-63
2023/05/25 07:01:10;;;;;;;;;;;;;;;;;;5067172;28;19925;-64
2023/05/25 07:03:37;;;;;;;;;;;;;;;;;;5063397;28;19996;-64
2023/05/25 07:06:03;;;;;;;;;;;;;;;;;;5062428;28;19928;-64
2023/05/25 07:08:29;;;;;;;;;;;;;;;;;;5061159;28;19965;-64
2023/05/25 07:10:55;;;;;;;;;;;;;;;;;;5057776;28;19909;-63
2023/05/25 07:13:21;;;;;;;;;;;;;;;;;;5068219;28;20287;-63
2023/05/25 07:15:47;;;;;;;;;;;;;;;;;;5063480;28;19963;-63
2023/05/25 07:18:13;;;;;;;;;;;;;;;;;;5060985;28;19919;-63
2023/05/25 07:20:40;;;;;;;;;;;;;;;;;;5073642;28;19934;-63
2023/05/25 07:23:06;;;;;;;;;;;;;;;;;;5074220;28;20364;-64
2023/05/25 07:25:32;;;;;;;;;;;;;;;;;;5071909;28;19957;-64
2023/05/25 07:27:58;;;;;;;;;;;;;;;;;;5061772;28;19950;-64
2023/05/25 07:30:24;;;;;;;;;;;;;;;;;;5063162;28;20405;-64
2023/05/25 07:32:50;;;;;;;;;;;;;;;;;;5069549;28;19926;-63
2023/05/25 07:35:16;;;;;;;;;;;;;;;;;;5072463;28;20391;-64
2023/05/25 07:37:42;;;;;;;;;;;;;;;;;;5071048;28;19946;-64
2023/05/25 07:40:08;;;;;;;;;;;;;;;;;;5067734;28;19913;-64
2023/05/25 07:42:34;;;;;;;;;;;;;;;;;;5072039;28;19909;-64
2023/05/25 07:45:00;;;;;;;;;;;;;;;;;;5063026;28;19917;-63
2023/05/25 07:47:26;;;;;;;;;;;;;;;;;;5059996;28;20692;-63
2023/05/25 07:49:51;;;;;;;;;;;;;;;;;;5063276;28;20008;-64
2023/05/25 07:52:18;;;;;;;;;;;;;;;;;;5063737;28;19919;-64
2023/05/25 07:54:44;;;;;;;;;;;;;;;;;;5054009;28;19917;-63
2023/05/25 07:57:10;;;;;;;;;;;;;;;;;;5053393;28;19962;-63
2023/05/25 07:59:36;;;;;;;;;;;;;;;;;;5061023;28;20303;-63
2023/05/25 08:02:01;;;;;;;;;;;;;;;;;;5069413;28;20003;-63
2023/05/25 08:04:27;;;;;;;;;;;;;;;;;;5062086;28;19977;-63
2023/05/25 08:06:53;;;;;;;;;;;;;;;;;;5069717;28;19931;-64
2023/05/25 08:09:19;;;;;;;;;;;;;;;;;;5055804;28;19940;-63
2023/05/25 08:11:46;;;;;;;;;;;;;;;;;;5059555;28;20386;-63
2023/05/25 08:14:12;;;;;;;;;;;;;;;;;;5053138;28;19917;-63
2023/05/25 08:16:37;;;;;;;;;;;;;;;;;;5059203;28;20007;-63
2023/05/25 08:19:03;;;;;;;;;;;;;;;;;;5065815;28;19920;-64
2023/05/25 08:21:33;;;;;;;;;;;;;;;;;;5059976;28;20013;-63
2023/05/25 08:24:02;;;;;;;;;;;;;;;;;;5052325;28;19909;-63
2023/05/25 08:26:28;;;;;;;;;;;;;;;;;;5052398;28;20000;-64
2023/05/25 08:28:55;;;;;;;;;;;;;;;;;;5052717;28;20512;-63
2023/05/25 08:31:21;;;;;;;;;;;;;;;;;;5063778;28;20007;-63
2023/05/25 08:33:47;;;;;;;;;;;;;;;;;;5064384;28;20102;-64
2023/05/25 08:36:12;;;;;;;;;;;;;;;;;;5053046;28;20426;-64
2023/05/25 08:38:38;;;;;;;;;;;;;;;;;;5052840;28;19915;-62
2023/05/25 08:41:04;;;;;;;;;;;;;;;;;;5053071;28;19913;-62
2023/05/25 08:43:30;;;;;;;;;;;;;;;;;;5069100;28;19916;-64
2023/05/25 08:45:56;;;;;;;;;;;;;;;;;;5070765;28;20080;-63
2023/05/25 08:48:22;;;;;;;;;;;;;;;;;;5059931;28;19912;-63
2023/05/25 08:50:48;;;;;;;;;;;;;;;;;;5052275;28;20006;-63
2023/05/25 08:53:14;;;;;;;;;;;;;;;;;;5062229;28;19912;-63
2023/05/25 08:55:40;;;;;;;;;;;;;;;;;;5063393;28;19912;-63
2023/05/25 08:58:06;;;;;;;;;;;;;;;;;;5069611;28;20328;-63
2023/05/25 09:00:32;;;;;;;;;;;;;;;;;;5068045;28;19946;-63
2023/05/25 09:02:58;;;;;;;;;;;;;;;;;;5068373;28;19958;-63
2023/05/25 09:05:24;;;;;;;;;;;;;;;;;;5059173;28;20007;-63
2023/05/25 09:07:50;;;;;;;;;;;;;;;;;;5070900;28;19970;-63
2023/05/25 09:10:16;;;;;;;;;;;;;;;;;;5059429;28;20372;-63
2023/05/25 09:12:42;;;;;;;;;;;;;;;;;;5071082;28;19951;-63
2023/05/25 09:15:08;;;;;;;;;;;;;;;;;;5066701;28;20350;-63
2023/05/25 09:17:34;;;;;;;;;;;;;;;;;;5062094;28;19923;-63
2023/05/25 09:20:00;;;;;;;;;;;;;;;;;;5058471;28;19956;-63
2023/05/25 09:22:26;;;;;;;;;;;;;;;;;;5060061;28;19908;-63
2023/05/25 09:24:52;;;;;;;;;;;;;;;;;;5072227;28;19918;-63
2023/05/25 09:27:18;;;;;;;;;;;;;;;;;;5061132;28;20428;-64
2023/05/25 09:29:45;;;;;;;;;;;;;;;;;;5059360;28;19955;-63
2023/05/25 09:32:11;;;;;;;;;;;;;;;;;;5065236;28;19956;-63
2023/05/25 09:34:36;;;;;;;;;;;;;;;;;;5058605;28;19970;-63
2023/05/25 09:37:02;;;;;;;;;;;;;;;;;;5062221;28;19916;-63
2023/05/25 09:39:28;;;;;;;;;;;;;;;;;;5054323;28;19913;-63
2023/05/25 09:41:54;;;;;;;;;;;;;;;;;;5068344;28;19956;-63
2023/05/25 09:44:20;;;;;;;;;;;;;;;;;;5055642;28;20367;-63
2023/05/25 09:46:46;;;;;;;;;;;;;;;;;;5074986;28;20384;-63
2023/05/25 09:49:12;;;;;;;;;;;;;;;;;;5075914;28;19912;-63
2023/05/25 09:51:38;;;;;;;;;;;;;;;;;;5073532;28;19954;-63
2023/05/25 09:54:04;;;;;;;;;;;;;;;;;;5075738;28;19917;-63
2023/05/25 09:56:30;;;;;;;;;;;;;;;;;;5075832;28;20013;-63
2023/05/25 09:58:56;;;;;;;;;;;;;;;;;;5074185;28;19913;-63
2023/05/25 10:01:22;;;;;;;;;;;;;;;;;;5074173;28;20053;-63
2023/05/25 10:03:49;;;;;;;;;;;;;;;;;;5068225;28;19970;-63
2023/05/25 10:06:15;;;;;;;;;;;;;;;;;;5075350;28;20001;-63
2023/05/25 10:08:41;;;;;;;;;;;;;;;;;;5072307;28;19956;-64
2023/05/25 10:11:07;;;;;;;;;;;;;;;;;;5072983;28;20387;-63
2023/05/25 10:13:33;;;;;;;;;;;;;;;;;;5072207;28;19913;-63
2023/05/25 10:15:59;;;;;;;;;;;;;;;;;;5060832;28;19952;-63
2023/05/25 10:18:25;;;;;;;;;;;;;;;;;;5062259;28;20376;-64
2023/05/25 10:20:51;;;;;;;;;;;;;;;;;;5063473;28;20007;-64
2023/05/25 10:23:17;;;;;;;;;;;;;;;;;;5068216;28;19952;-58
2023/05/25 10:25:42;;;;;;;;;;;;;;;;;;5058805;28;19913;-58
2023/05/25 10:28:09;;;;;;;;;;;;;;;;;;5077331;28;20013;-59
2023/05/25 10:30:35;;;;;;;;;;;;;;;;;;5073135;28;19917;-58
2023/05/25 10:33:01;;;;;;;;;;;;;;;;;;5070735;28;19931;-58
2023/05/25 10:35:27;;;;;;;;;;;;;;;;;;5073546;28;20366;-58
2023/05/25 10:37:53;;;;;;;;;;;;;;;;;;5073089;28;19913;-59
2023/05/25 10:40:19;;;;;;;;;;;;;;;;;;5066469;28;19951;-59
2023/05/25 10:42:45;;;;;;;;;;;;;;;;;;5069723;28;19920;-60
2023/05/25 10:45:11;;;;;;;;;;;;;;;;;;5077340;28;19912;-58
2023/05/25 10:47:37;;;;;;;;;;;;;;;;;;5068825;28;20372;-58
2023/05/25 10:50:03;;;;;;;;;;;;;;;;;;5072246;28;19964;-58
2023/05/25 10:52:29;;;;;;;;;;;;;;;;;;5066067;28;20381;-59
2023/05/25 10:54:55;;;;;;;;;;;;;;;;;;5073833;28;19916;-58
2023/05/25 10:57:21;;;;;;;;;;;;;;;;;;5062039;28;19917;-58
2023/05/25 10:59:47;;;;;;;;;;;;;;;;;;5068466;28;19918;-58
2023/05/25 11:02:13;;;;;;;;;;;;;;;;;;5057794;28;19919;-59
2023/05/25 11:04:39;;;;;;;;;;;;;;;;;;5070244;28;20014;-59
2023/05/25 11:07:07;;;;;;;;;;;;;;;;;;5068586;28;19920;-58
2023/05/25 11:09:35;;;;;;;;;;;;;;;;;;5066032;28;19912;-58
2023/05/25 11:12:02;;;;;;;;;;;;;;;;;;5066839;28;19923;-58
2023/05/25 11:14:31;;;;;;;;;;;;;;;;;;5064664;28;19928;-59
2023/05/25 11:16:57;;;;;;;;;;;;;;;;;;5067687;28;19916;-59
2023/05/25 11:19:22;;;;;;;;;;;;;;;;;;5073643;28;20264;-58
2023/05/25 11:21:49;;;;;;;;;;;;;;;;;;5071140;28;19919;-59
2023/05/25 11:24:15;;;;;;;;;;;;;;;;;;5064304;28;19924;-59
2023/05/25 11:26:41;;;;;;;;;;;;;;;;;;5055064;28;20526;-59
2023/05/25 11:29:06;;;;;;;;;;;;;;;;;;5063989;28;19917;-59
2023/05/25 11:31:32;;;;;;;;;;;;;;;;;;5071911;28;19956;-59
2023/05/25 11:33:59;;;;;;;;;;;;;;;;;;5071280;28;19927;-58
2023/05/25 11:36:25;;;;;;;;;;;;;;;;;;5064080;28;19913;-58
2023/05/25 11:38:51;;;;;;;;;;;;;;;;;;5072816;28;19912;-59
2023/05/25 11:41:17;;;;;;;;;;;;;;;;;;5063885;28;19916;-59
2023/05/25 11:43:43;;;;;;;;;;;;;;;;;;5061896;28;20011;-58
2023/05/25 11:46:09;;;;;;;;;;;;;;;;;;5063079;28;19951;-58
2023/05/25 11:48:35;;;;;;;;;;;;;;;;;;5067319;28;20004;-59
2023/05/25 11:51:01;;;;;;;;;;;;;;;;;;5073049;28;20007;-58
2023/05/25 11:53:27;;;;;;;;;;;;;;;;;;5067484;28;20261;-58
2023/05/25 11:55:53;;;;;;;;;;;;;;;;;;5053606;28;20011;-58
2023/05/25 11:58:19;;;;;;;;;;;;;;;;;;5053759;28;19912;-58
2023/05/25 12:00:45;;;;;;;;;;;;;;;;;;5069878;28;19955;-59
2023/05/25 12:03:11;;;;;;;;;;;;;;;;;;5072462;28;20303;-58
2023/05/25 12:05:37;;;;;;;;;;;;;;;;;;5068237;28;19919;-58
2023/05/25 12:08:03;;;;;;;;;;;;;;;;;;5069159;28;19931;-59
2023/05/25 12:10:29;;;;;;;;;;;;;;;;;;5070328;28;20004;-58
2023/05/25 12:12:57;;;;;;;;;;;;;;;;;;5072949;28;20309;-58
2023/05/25 12:15:23;;;;;;;;;;;;;;;;;;5071491;28;19982;-59
2023/05/25 12:17:49;;;;;;;;;;;;;;;;;;5072541;28;19970;-56
2023/05/25 12:20:15;;;;;;;;;;;;;;;;;;5064626;28;19960;-58
2023/05/25 12:22:41;;;;;;;;;;;;;;;;;;5058217;28;19920;-59
2023/05/25 12:25:07;;;;;;;;;;;;;;;;;;5072747;28;20300;-58
2023/05/25 12:27:33;;;;;;;;;;;;;;;;;;5064369;28;19974;-58
2023/05/25 12:29:59;;;;;;;;;;;;;;;;;;5055333;28;20011;-58
2023/05/25 12:32:25;;;;;;;;;;;;;;;;;;5056099;28;19978;-58
2023/05/25 12:34:51;;;;;;;;;;;;;;;;;;5052471;28;19948;-58
2023/05/25 12:37:18;;;;;;;;;;;;;;;;;;5052702;28;19962;-56
2023/05/25 12:39:44;;;;;;;;;;;;;;;;;;5052329;28;19909;-57
2023/05/25 12:42:10;;;;;;;;;;;;;;;;;;5052836;28;19909;-56
2023/05/25 12:44:36;;;;;;;;;;;;;;;;;;5069678;28;19913;-57
2023/05/25 12:47:02;;;;;;;;;;;;;;;;;;5059335;28;19921;-56
2023/05/25 12:49:28;;;;;;;;;;;;;;;;;;5072127;28;20302;-56
2023/05/25 12:51:54;;;;;;;;;;;;;;;;;;5063932;28;19935;-56
2023/05/25 12:54:20;;;;;;;;;;;;;;;;;;5072497;28;19908;-57
2023/05/25 12:56:46;;;;;;;;;;;;;;;;;;5063421;28;19913;-57
2023/05/25 12:59:12;;;;;;;;;;;;;;;;;;5056533;28;20011;-57
2023/05/25 13:01:38;;;;;;;;;;;;;;;;;;5066931;28;19916;-57
2023/05/25 13:04:04;;;;;;;;;;;;;;;;;;5060957;28;19912;-56
2023/05/25 13:06:30;;;;;;;;;;;;;;;;;;5063913;28;19938;-56
2023/05/25 13:08:56;;;;;;;;;;;;;;;;;;5072004;28;19915;-56
2023/05/25 13:11:22;;;;;;;;;;;;;;;;;;5071207;28;19912;-57
2023/05/25 13:13:48;;;;;;;;;;;;;;;;;;5071589;28;19912;-56
2023/05/25 13:16:14;;;;;;;;;;;;;;;;;;5066197;28;20063;-57
2023/05/25 13:18:40;;;;;;;;;;;;;;;;;;5071461;28;19936;-58
2023/05/25 13:21:08;;;;;;;;;;;;;;;;;;5064901;28;19947;-57
2023/05/25 13:23:34;;;;;;;;;;;;;;;;;;5063184;28;19958;-56
2023/05/25 13:25:59;;;;;;;;;;;;;;;;;;5071204;28;19916;-57
2023/05/25 13:28:25;;;;;;;;;;;;;;;;;;5061558;28;20122;-56
2023/05/25 13:30:51;;;;;;;;;;;;;;;;;;5066057;28;19913;-57
2023/05/25 13:33:17;;;;;;;;;;;;;;;;;;5069325;28;20284;-56
2023/05/25 13:36:06;;;;;;;;;;;;;;;;;;5071816;28;20356;-57
2023/05/25 13:38:32;;;;;;;;;;;;;;;;;;5052764;28;20268;-57
2023/05/25 13:40:58;;;;;;;;;;;;;;;;;;5056740;28;19913;-57
2023/05/25 13:43:24;;;;;;;;;;;;;;;;;;5071935;28;20431;-57
2023/05/25 13:45:50;;;;;;;;;;;;;;;;;;5071936;28;19944;-57
2023/05/25 13:48:16;;;;;;;;;;;;;;;;;;5071888;28;19962;-57
2023/05/25 13:50:43;;;;;;;;;;;;;;;;;;5071200;28;20341;-57
2023/05/25 13:53:09;;;;;;;;;;;;;;;;;;5067090;28;19964;-58
2023/05/25 13:55:35;;;;;;;;;;;;;;;;;;5062535;28;19967;-56
2023/05/25 13:58:01;;;;;;;;;;;;;;;;;;5071248;28;19999;-56
2023/05/25 14:00:27;;;;;;;;;;;;;;;;;;5061381;28;19920;-57
2023/05/25 14:02:53;;;;;;;;;;;;;;;;;;5068261;28;20279;-57
2023/05/25 14:05:19;;;;;;;;;;;;;;;;;;5071122;28;20348;-57
2023/05/25 14:07:45;;;;;;;;;;;;;;;;;;5071408;28;19918;-56
2023/05/25 14:10:11;;;;;;;;;;;;;;;;;;5065185;28;19923;-57
2023/05/25 14:12:37;;;;;;;;;;;;;;;;;;5066184;28;19908;-57
2023/05/25 14:15:03;;;;;;;;;;;;;;;;;;5069655;28;19975;-58
2023/05/25 14:17:29;;;;;;;;;;;;;;;;;;5071424;28;19915;-58
2023/05/25 14:19:55;;;;;;;;;;;;;;;;;;5070580;28;20007;-58
2023/05/25 14:22:21;;;;;;;;;;;;;;;;;;5056769;28;19983;-57
2023/05/25 14:24:47;;;;;;;;;;;;;;;;;;5067341;28;20000;-57
2023/05/25 14:27:14;;;;;;;;;;;;;;;;;;5062005;28;19920;-57
2023/05/25 14:29:40;;;;;;;;;;;;;;;;;;5070229;28;19912;-56
2023/05/25 14:32:06;;;;;;;;;;;;;;;;;;5067684;28;20002;-57
2023/05/25 14:34:32;;;;;;;;;;;;;;;;;;5073474;28;20396;-56
2023/05/25 14:36:58;;;;;;;;;;;;;;;;;;5069906;28;19965;-57
2023/05/25 14:39:24;;;;;;;;;;;;;;;;;;5072007;28;19912;-58
2023/05/25 14:41:50;;;;;;;;;;;;;;;;;;5070881;28;20350;-57
2023/05/25 14:44:16;;;;;;;;;;;;;;;;;;5072872;28;19995;-57
2023/05/25 14:46:42;;;;;;;;;;;;;;;;;;5066352;28;19916;-57
2023/05/25 14:49:08;;;;;;;;;;;;;;;;;;5068564;28;20410;-57
2023/05/25 14:51:34;;;;;;;;;;;;;;;;;;5057146;28;19916;-57
2023/05/25 14:54:02;;;;;;;;;;;;;;;;;;5065124;28;20372;-57
2023/05/25 14:56:28;;;;;;;;;;;;;;;;;;5065023;28;19916;-57
2023/05/25 14:58:54;;;;;;;;;;;;;;;;;;5054318;28;21455;-57
2023/05/25 15:01:20;;;;;;;;;;;;;;;;;;5072715;28;19913;-57
2023/05/25 15:03:46;;;;;;;;;;;;;;;;;;5071295;28;19913;-58
2023/05/25 15:06:11;;;;;;;;;;;;;;;;;;5063157;28;20016;-57
2023/05/25 15:08:37;;;;;;;;;;;;;;;;;;5074331;28;20130;-56
2023/05/25 15:11:03;;;;;;;;;;;;;;;;;;5066201;28;19913;-57
2023/05/25 15:13:29;;;;;;;;;;;;;;;;;;5063684;28;20376;-57
2023/05/25 15:15:56;;;;;;;;;;;;;;;;;;5053991;28;20011;-57
2023/05/25 15:18:24;;;;;;;;;;;;;;;;;;5056283;28;21555;-57
2023/05/25 15:20:49;;;;;;;;;;;;;;;;;;5068173;28;20042;-58
2023/05/25 15:23:15;;;;;;;;;;;;;;;;;;5075078;28;20356;-57
2023/05/25 15:25:41;;;;;;;;;;;;;;;;;;5073119;28;19916;-57
2023/05/25 15:28:07;;;;;;;;;;;;;;;;;;5071705;28;19961;-58
2023/05/25 15:30:33;;;;;;;;;;;;;;;;;;5060591;28;20410;-57
2023/05/25 15:32:59;;;;;;;;;;;;;;;;;;5055953;28;19913;-57
2023/05/25 15:35:29;;;;;;;;;;;;;;;;;;5069488;28;19919;-57
2023/05/25 15:37:55;;;;;;;;;;;;;;;;;;5060204;28;19916;-58
2023/05/25 15:40:21;;;;;;;;;;;;;;;;;;5059826;28;19912;-57
2023/05/25 15:42:47;;;;;;;;;;;;;;;;;;5063653;28;19913;-57
2023/05/25 15:45:13;;;;;;;;;;;;;;;;;;5069945;28;19962;-57
2023/05/25 15:47:39;;;;;;;;;;;;;;;;;;5062987;28;19920;-57
2023/05/25 15:50:05;;;;;;;;;;;;;;;;;;5053005;28;19936;-57
2023/05/25 15:52:31;;;;;;;;;;;;;;;;;;5059282;28;19958;-57
2023/05/25 15:54:57;;;;;;;;;;;;;;;;;;5065399;28;19965;-57
2023/05/25 15:57:23;;;;;;;;;;;;;;;;;;5070501;28;20426;-57
2023/05/25 15:59:50;;;;;;;;;;;;;;;;;;5068177;28;19967;-57
2023/05/25 16:02:16;;;;;;;;;;;;;;;;;;5058874;28;19959;-58
2023/05/25 16:04:42;;;;;;;;;;;;;;;;;;5056941;28;19956;-58
2023/05/25 16:07:07;;;;;;;;;;;;;;;;;;5070251;28;20003;-57
2023/05/25 16:09:33;;;;;;;;;;;;;;;;;;5059903;28;19960;-57
2023/05/25 16:12:00;;;;;;;;;;;;;;;;;;5061626;28;20003;-57
2023/05/25 16:14:26;;;;;;;;;;;;;;;;;;5044996;28;19982;-57
2023/05/25 16:16:52;;;;;;;;;;;;;;;;;;5058973;28;19948;-56
2023/05/25 16:19:18;;;;;;;;;;;;;;;;;;5064128;28;19973;-57
2023/05/25 16:21:44;;;;;;;;;;;;;;;;;;5070111;28;19909;-56
2023/05/25 16:24:10;;;;;;;;;;;;;;;;;;5069101;28;19963;-57
2023/05/25 16:26:36;;;;;;;;;;;;;;;;;;5066700;28;19951;-57
2023/05/25 16:29:02;;;;;;;;;;;;;;;;;;5063716;28;19985;-57
2023/05/25 16:31:28;;;;;;;;;;;;;;;;;;5067615;28;19951;-57
2023/05/25 16:33:54;;;;;;;;;;;;;;;;;;5063384;28;19943;-57
2023/05/25 16:36:20;;;;;;;;;;;;;;;;;;5072487;28;20395;-57
2023/05/25 16:38:46;;;;;;;;;;;;;;;;;;5061233;28;19912;-57